sensor_id;sensor_type;location;lat;lon;timestamp;pressure;altitude;pressure_sealevel;temperature;humidity
76050;BME280;64967;50.234;19.224;2023-08-21T00:01:38;74425.97;;;-143.90;81.20
76050;BME280;64967;50.234;19.224;2023-08-21T00:04:05;74440.44;;;-143.90;81.24
76050;BME280;64967;50.234;19.224;2023-08-21T00:06:32;74438.38;;;-143.90;80.79
76050;BME280;64967;50.234;19.224;2023-08-21T00:09:00;74436.28;;;-143.90;80.54
76050;BME280;64967;50.234;19.224;2023-08-21T00:11:27;74428.03;;;-143.90;80.32
76050;BME280;64967;50.234;19.224;2023-08-21T00:13:54;74430.09;;;-143.90;80.46
76050;BME280;64967;50.234;19.224;2023-08-21T00:16:21;74432.16;;;-143.90;81.03
76050;BME280;64967;50.234;19.224;2023-08-21T00:18:48;74430.09;;;-143.90;81.11
76050;BME280;64967;50.234;19.224;2023-08-21T00:21:15;74432.16;;;-143.90;80.51
76050;BME280;64967;50.234;19.224;2023-08-21T00:23:41;74438.38;;;-143.90;81.06
76050;BME280;64967;50.234;19.224;2023-08-21T00:26:08;74434.22;;;-143.90;81.22
76050;BME280;64967;50.234;19.224;2023-08-21T00:28:35;74432.16;;;-143.90;80.97
76050;BME280;64967;50.234;19.224;2023-08-21T00:31:02;74436.28;;;-143.90;81.14
76050;BME280;64967;50.234;19.224;2023-08-21T00:33:33;74438.38;;;-143.90;81.17
76050;BME280;64967;50.234;19.224;2023-08-21T00:36:00;74434.22;;;-143.90;81.70
76050;BME280;64967;50.234;19.224;2023-08-21T00:38:26;74444.56;;;-143.90;81.86
76050;BME280;64967;50.234;19.224;2023-08-21T00:40:53;74436.28;;;-143.90;83.31
76050;BME280;64967;50.234;19.224;2023-08-21T00:43:20;74452.84;;;-143.90;83.66
76050;BME280;64967;50.234;19.224;2023-08-21T00:45:49;74442.50;;;-143.90;83.51
76050;BME280;64967;50.234;19.224;2023-08-21T00:48:17;74448.69;;;-143.90;83.67
76050;BME280;64967;50.234;19.224;2023-08-21T00:50:44;74448.69;;;-143.90;83.43
76050;BME280;64967;50.234;19.224;2023-08-21T00:53:12;74459.03;;;-143.90;82.57
76050;BME280;64967;50.234;19.224;2023-08-21T00:55:40;74461.09;;;-143.90;82.20
76050;BME280;64967;50.234;19.224;2023-08-21T00:58:09;74456.97;;;-143.90;81.77
76050;BME280;64967;50.234;19.224;2023-08-21T01:00:37;74461.09;;;-143.90;81.79
76050;BME280;64967;50.234;19.224;2023-08-21T01:03:04;74463.16;;;-143.90;82.43
76050;BME280;64967;50.234;19.224;2023-08-21T01:05:31;74467.31;;;-143.90;82.78
76050;BME280;64967;50.234;19.224;2023-08-21T01:11:14;74463.16;;;-143.90;83.00
76050;BME280;64967;50.234;19.224;2023-08-21T01:13:57;74471.44;;;-143.90;84.13
76050;BME280;64967;50.234;19.224;2023-08-21T01:16:27;74487.97;;;-143.90;85.03
76050;BME280;64967;50.234;19.224;2023-08-21T01:18:56;74485.91;;;-143.90;84.66
76050;BME280;64967;50.234;19.224;2023-08-21T01:21:24;74485.91;;;-143.90;84.84
76050;BME280;64967;50.234;19.224;2023-08-21T01:23:52;74510.72;;;-143.90;84.97
76050;BME280;64967;50.234;19.224;2023-08-21T01:26:21;74527.25;;;-143.90;85.74
76050;BME280;64967;50.234;19.224;2023-08-21T01:28:48;74533.44;;;-143.90;86.28
76050;BME280;64967;50.234;19.224;2023-08-21T01:31:33;74543.78;;;-143.90;86.37
76050;BME280;64967;50.234;19.224;2023-08-21T01:34:04;74547.91;;;-143.90;86.31
76050;BME280;64967;50.234;19.224;2023-08-21T01:36:34;74543.78;;;-143.90;85.86
76050;BME280;64967;50.234;19.224;2023-08-21T01:39:01;74545.84;;;-143.90;85.22
76050;BME280;64967;50.234;19.224;2023-08-21T01:41:28;74539.66;;;-143.90;84.82
76050;BME280;64967;50.234;19.224;2023-08-21T01:43:55;74531.38;;;-143.90;83.75
76050;BME280;64967;50.234;19.224;2023-08-21T01:46:21;74539.66;;;-143.90;83.45
76050;BME280;64967;50.234;19.224;2023-08-21T01:48:48;74543.78;;;-143.90;82.40
76050;BME280;64967;50.234;19.224;2023-08-21T01:51:15;74547.91;;;-143.90;82.63
76050;BME280;64967;50.234;19.224;2023-08-21T01:53:42;74566.53;;;-143.90;83.20
76050;BME280;64967;50.234;19.224;2023-08-21T01:56:11;74568.59;;;-143.90;83.63
76050;BME280;64967;50.234;19.224;2023-08-21T01:58:37;74576.84;;;-143.90;83.37
76050;BME280;64967;50.234;19.224;2023-08-21T02:01:04;74581.00;;;-143.90;83.59
76050;BME280;64967;50.234;19.224;2023-08-21T02:03:31;74589.25;;;-143.90;84.73
76050;BME280;64967;50.234;19.224;2023-08-21T02:05:58;74593.38;;;-143.90;85.63
76050;BME280;64967;50.234;19.224;2023-08-21T02:08:30;74599.59;;;-143.90;86.94
76050;BME280;64967;50.234;19.224;2023-08-21T02:10:58;74597.53;;;-143.90;87.06
76050;BME280;64967;50.234;19.224;2023-08-21T02:13:25;74599.59;;;-143.90;87.19
76050;BME280;64967;50.234;19.224;2023-08-21T02:15:52;74589.25;;;-143.90;86.74
76050;BME280;64967;50.234;19.224;2023-08-21T02:18:19;74589.25;;;-143.90;86.26
76050;BME280;64967;50.234;19.224;2023-08-21T02:20:47;74591.31;;;-143.90;85.46
76050;BME280;64967;50.234;19.224;2023-08-21T02:23:15;74589.25;;;-143.90;85.01
76050;BME280;64967;50.234;19.224;2023-08-21T02:25:42;74572.72;;;-143.90;86.23
76050;BME280;64967;50.234;19.224;2023-08-21T02:28:09;74581.00;;;-143.90;85.79
76050;BME280;64967;50.234;19.224;2023-08-21T02:30:40;74578.91;;;-143.90;85.23
76050;BME280;64967;50.234;19.224;2023-08-21T02:33:06;74578.91;;;-143.90;85.20
76050;BME280;64967;50.234;19.224;2023-08-21T02:35:36;74570.66;;;-143.90;85.67
76050;BME280;64967;50.234;19.224;2023-08-21T02:38:03;74574.78;;;-143.90;85.72
76050;BME280;64967;50.234;19.224;2023-08-21T02:40:29;74564.44;;;-143.90;85.68
76050;BME280;64967;50.234;19.224;2023-08-21T02:42:57;74556.19;;;-143.90;85.65
76050;BME280;64967;50.234;19.224;2023-08-21T02:45:24;74556.19;;;-143.90;86.05
76050;BME280;64967;50.234;19.224;2023-08-21T02:47:51;74543.78;;;-143.90;85.68
76050;BME280;64967;50.234;19.224;2023-08-21T02:50:17;74545.84;;;-143.90;85.64
76050;BME280;64967;50.234;19.224;2023-08-21T02:52:44;74543.78;;;-143.90;85.01
76050;BME280;64967;50.234;19.224;2023-08-21T02:55:11;74552.03;;;-143.90;85.23
76050;BME280;64967;50.234;19.224;2023-08-21T02:57:38;74543.78;;;-143.90;85.93
76050;BME280;64967;50.234;19.224;2023-08-21T03:00:05;74531.38;;;-143.90;85.92
76050;BME280;64967;50.234;19.224;2023-08-21T03:02:34;74527.25;;;-143.90;85.65
76050;BME280;64967;50.234;19.224;2023-08-21T03:05:01;74535.50;;;-143.90;85.83
76050;BME280;64967;50.234;19.224;2023-08-21T03:07:28;74523.09;;;-143.90;86.03
76050;BME280;64967;50.234;19.224;2023-08-21T03:09:55;74525.19;;;-143.90;85.81
76050;BME280;64967;50.234;19.224;2023-08-21T03:12:21;74531.38;;;-143.90;85.53
76050;BME280;64967;50.234;19.224;2023-08-21T03:14:48;74533.44;;;-143.90;85.31
76050;BME280;64967;50.234;19.224;2023-08-21T03:17:15;74527.25;;;-143.90;85.05
76050;BME280;64967;50.234;19.224;2023-08-21T03:19:42;74533.44;;;-143.90;85.30
76050;BME280;64967;50.234;19.224;2023-08-21T03:22:09;74537.56;;;-143.90;85.27
76050;BME280;64967;50.234;19.224;2023-08-21T03:24:35;74523.09;;;-143.90;84.72
76050;BME280;64967;50.234;19.224;2023-08-21T03:27:03;74533.44;;;-143.90;84.68
76050;BME280;64967;50.234;19.224;2023-08-21T03:29:29;74541.72;;;-143.90;85.01
76050;BME280;64967;50.234;19.224;2023-08-21T03:31:57;74535.50;;;-143.90;84.92
76050;BME280;64967;50.234;19.224;2023-08-21T03:34:24;74543.78;;;-143.90;84.91
76050;BME280;64967;50.234;19.224;2023-08-21T03:36:51;74539.66;;;-143.90;85.66
76050;BME280;64967;50.234;19.224;2023-08-21T03:39:18;74549.97;;;-143.90;85.28
76050;BME280;64967;50.234;19.224;2023-08-21T03:41:45;74552.03;;;-143.90;85.72
76050;BME280;64967;50.234;19.224;2023-08-21T03:44:11;74552.03;;;-143.90;85.46
76050;BME280;64967;50.234;19.224;2023-08-21T03:46:38;74547.91;;;-143.90;85.21
76050;BME280;64967;50.234;19.224;2023-08-21T03:49:05;74547.91;;;-143.90;85.39
76050;BME280;64967;50.234;19.224;2023-08-21T03:51:32;74545.84;;;-143.90;85.64
76050;BME280;64967;50.234;19.224;2023-08-21T03:53:59;74547.91;;;-143.90;85.55
76050;BME280;64967;50.234;19.224;2023-08-21T03:56:26;74556.19;;;-143.90;85.45
76050;BME280;64967;50.234;19.224;2023-08-21T03:58:52;74549.97;;;-143.90;85.70
76050;BME280;64967;50.234;19.224;2023-08-21T04:01:19;74539.66;;;-143.90;85.78
76050;BME280;64967;50.234;19.224;2023-08-21T04:03:46;74533.44;;;-143.90;86.10
76050;BME280;64967;50.234;19.224;2023-08-21T04:06:13;74531.38;;;-143.90;85.80
76050;BME280;64967;50.234;19.224;2023-08-21T04:08:40;74531.38;;;-143.90;85.39
76050;BME280;64967;50.234;19.224;2023-08-21T04:11:09;74535.50;;;-143.90;85.41
76050;BME280;64967;50.234;19.224;2023-08-21T04:13:36;74535.50;;;-143.90;85.63
76050;BME280;64967;50.234;19.224;2023-08-21T04:16:03;74531.38;;;-143.90;85.89
76050;BME280;64967;50.234;19.224;2023-08-21T04:18:30;74535.50;;;-143.90;85.58
76050;BME280;64967;50.234;19.224;2023-08-21T04:21:08;74523.09;;;-143.90;85.58
76050;BME280;64967;50.234;19.224;2023-08-21T04:23:35;74527.25;;;-143.90;85.59
76050;BME280;64967;50.234;19.224;2023-08-21T04:26:03;74518.97;;;-143.90;85.54
76050;BME280;64967;50.234;19.224;2023-08-21T04:28:31;74510.72;;;-143.90;85.27
76050;BME280;64967;50.234;19.224;2023-08-21T04:30:58;74510.72;;;-143.90;85.71
76050;BME280;64967;50.234;19.224;2023-08-21T04:33:28;74494.16;;;-143.90;85.46
76050;BME280;64967;50.234;19.224;2023-08-21T04:35:55;74487.97;;;-143.90;85.66
76050;BME280;64967;50.234;19.224;2023-08-21T04:38:22;74487.97;;;-143.90;85.51
76050;BME280;64967;50.234;19.224;2023-08-21T04:40:49;74481.78;;;-143.90;85.60
76050;BME280;64967;50.234;19.224;2023-08-21T04:43:17;74473.50;;;-143.90;85.94
76050;BME280;64967;50.234;19.224;2023-08-21T04:45:50;74467.31;;;-143.90;85.91
76050;BME280;64967;50.234;19.224;2023-08-21T04:48:19;74461.09;;;-143.90;85.79
76050;BME280;64967;50.234;19.224;2023-08-21T04:50:47;74463.16;;;-143.90;85.72
76050;BME280;64967;50.234;19.224;2023-08-21T04:53:14;74450.75;;;-143.90;85.73
76050;BME280;64967;50.234;19.224;2023-08-21T04:55:41;74448.69;;;-143.90;85.89
76050;BME280;64967;50.234;19.224;2023-08-21T04:58:08;74440.44;;;-143.90;85.62
76050;BME280;64967;50.234;19.224;2023-08-21T05:00:35;74434.22;;;-143.90;85.61
76050;BME280;64967;50.234;19.224;2023-08-21T05:03:03;74428.03;;;-143.90;85.29
76050;BME280;64967;50.234;19.224;2023-08-21T05:05:30;74421.81;;;-143.90;85.24
76050;BME280;64967;50.234;19.224;2023-08-21T05:07:57;74415.63;;;-143.90;85.39
76050;BME280;64967;50.234;19.224;2023-08-21T05:10:24;74405.28;;;-143.90;85.54
76050;BME280;64967;50.234;19.224;2023-08-21T05:12:50;74390.81;;;-143.90;84.75
76050;BME280;64967;50.234;19.224;2023-08-21T05:15:17;74378.41;;;-143.90;83.82
76050;BME280;64967;50.234;19.224;2023-08-21T05:17:44;74359.81;;;-143.90;83.71
76050;BME280;64967;50.234;19.224;2023-08-21T05:20:11;74343.28;;;-143.90;83.76
76050;BME280;64967;50.234;19.224;2023-08-21T05:22:40;74301.94;;;-143.90;82.33
76050;BME280;64967;50.234;19.224;2023-08-21T05:25:07;74270.94;;;-143.90;81.32
76050;BME280;64967;50.234;19.224;2023-08-21T05:27:35;74256.47;;;-143.90;80.21
76050;BME280;64967;50.234;19.224;2023-08-21T05:30:02;74237.88;;;-143.90;79.76
76050;BME280;64967;50.234;19.224;2023-08-21T05:32:29;74239.94;;;-143.90;79.34
76050;BME280;64967;50.234;19.224;2023-08-21T05:34:56;74235.78;;;-143.90;78.23
76050;BME280;64967;50.234;19.224;2023-08-21T05:37:23;74225.47;;;-143.90;77.41
76050;BME280;64967;50.234;19.224;2023-08-21T05:39:50;74235.78;;;-143.90;77.18
76050;BME280;64967;50.234;19.224;2023-08-21T05:42:16;74233.72;;;-143.90;77.03
76050;BME280;64967;50.234;19.224;2023-08-21T05:44:43;74233.72;;;-143.90;76.09
76050;BME280;64967;50.234;19.224;2023-08-21T05:47:10;74225.47;;;-143.90;76.05
76050;BME280;64967;50.234;19.224;2023-08-21T05:49:36;74219.25;;;-143.90;76.82
76050;BME280;64967;50.234;19.224;2023-08-21T05:52:03;74204.78;;;-143.90;76.35
76050;BME280;64967;50.234;19.224;2023-08-21T05:54:30;74184.13;;;-143.90;75.75
76050;BME280;64967;50.234;19.224;2023-08-21T05:56:57;74175.84;;;-143.90;74.68
76050;BME280;64967;50.234;19.224;2023-08-21T05:59:30;74167.59;;;-143.90;73.70
76050;BME280;64967;50.234;19.224;2023-08-21T06:01:57;74163.47;;;-143.90;74.48
76050;BME280;64967;50.234;19.224;2023-08-21T06:04:24;74159.31;;;-143.90;73.89
76050;BME280;64967;50.234;19.224;2023-08-21T06:06:51;74159.31;;;-143.90;73.82
76050;BME280;64967;50.234;19.224;2023-08-21T06:09:18;74161.38;;;-143.90;72.44
76050;BME280;64967;50.234;19.224;2023-08-21T06:11:45;74149.00;;;-143.90;72.97
76050;BME280;64967;50.234;19.224;2023-08-21T06:14:12;74136.59;;;-143.90;71.55
76050;BME280;64967;50.234;19.224;2023-08-21T06:16:39;74115.91;;;-143.90;70.87
76050;BME280;64967;50.234;19.224;2023-08-21T06:19:06;74118.00;;;-143.90;70.81
76050;BME280;64967;50.234;19.224;2023-08-21T06:21:33;74105.59;;;-143.90;72.34
76050;BME280;64967;50.234;19.224;2023-08-21T06:23:59;74115.91;;;-143.90;71.29
76050;BME280;64967;50.234;19.224;2023-08-21T06:26:26;74122.13;;;-143.90;72.19
76050;BME280;64967;50.234;19.224;2023-08-21T06:28:53;74126.25;;;-143.90;73.23
76050;BME280;64967;50.234;19.224;2023-08-21T06:31:20;74130.38;;;-143.90;72.14
76050;BME280;64967;50.234;19.224;2023-08-21T06:33:47;74126.25;;;-143.90;72.64
76050;BME280;64967;50.234;19.224;2023-08-21T06:36:13;74134.53;;;-143.90;73.21
76050;BME280;64967;50.234;19.224;2023-08-21T06:38:41;74136.59;;;-143.90;73.31
76050;BME280;64967;50.234;19.224;2023-08-21T06:41:07;74138.66;;;-143.90;71.88
76050;BME280;64967;50.234;19.224;2023-08-21T06:43:38;74149.00;;;-143.90;72.65
76050;BME280;64967;50.234;19.224;2023-08-21T06:46:10;74142.78;;;-143.90;73.18
76050;BME280;64967;50.234;19.224;2023-08-21T06:48:39;74159.31;;;-143.90;73.18
76050;BME280;64967;50.234;19.224;2023-08-21T06:51:11;74202.72;;;-143.90;74.01
76050;BME280;64967;50.234;19.224;2023-08-21T06:53:42;74192.41;;;-143.90;74.85
76050;BME280;64967;50.234;19.224;2023-08-21T06:56:09;74180.00;;;-143.90;74.72
76050;BME280;64967;50.234;19.224;2023-08-21T06:58:36;74186.19;;;-143.90;75.58
76050;BME280;64967;50.234;19.224;2023-08-21T07:01:03;74194.47;;;-143.90;74.37
76050;BME280;64967;50.234;19.224;2023-08-21T07:03:29;74196.53;;;-143.90;75.16
76050;BME280;64967;50.234;19.224;2023-08-21T07:05:57;74184.13;;;-143.90;75.13
76050;BME280;64967;50.234;19.224;2023-08-21T07:08:24;74175.84;;;-143.90;75.24
76050;BME280;64967;50.234;19.224;2023-08-21T07:10:52;74163.47;;;-143.90;75.25
76050;BME280;64967;50.234;19.224;2023-08-21T07:13:19;74175.84;;;-143.90;74.92
76050;BME280;64967;50.234;19.224;2023-08-21T07:15:47;74182.06;;;-143.90;75.46
76050;BME280;64967;50.234;19.224;2023-08-21T07:18:14;74163.47;;;-143.90;76.50
76050;BME280;64967;50.234;19.224;2023-08-21T07:20:41;74161.38;;;-143.90;75.18
76050;BME280;64967;50.234;19.224;2023-08-21T07:23:08;74159.31;;;-143.90;74.92
76050;BME280;64967;50.234;19.224;2023-08-21T07:25:34;74163.47;;;-143.90;76.10
76050;BME280;64967;50.234;19.224;2023-08-21T07:28:01;74155.19;;;-143.90;75.06
76050;BME280;64967;50.234;19.224;2023-08-21T07:30:28;74149.00;;;-143.90;73.80
76050;BME280;64967;50.234;19.224;2023-08-21T07:32:55;74142.78;;;-143.90;74.58
76050;BME280;64967;50.234;19.224;2023-08-21T07:35:22;74142.78;;;-143.90;72.45
76050;BME280;64967;50.234;19.224;2023-08-21T07:37:48;74142.78;;;-143.90;73.18
76050;BME280;64967;50.234;19.224;2023-08-21T07:40:15;74142.78;;;-143.90;73.19
76050;BME280;64967;50.234;19.224;2023-08-21T07:42:42;74130.38;;;-143.90;72.39
76050;BME280;64967;50.234;19.224;2023-08-21T07:45:09;74140.72;;;-143.90;72.98
76050;BME280;64967;50.234;19.224;2023-08-21T07:47:37;74146.91;;;-143.90;72.52
76050;BME280;64967;50.234;19.224;2023-08-21T07:50:08;74153.13;;;-143.90;72.21
76050;BME280;64967;50.234;19.224;2023-08-21T07:52:35;74144.84;;;-143.90;72.16
76050;BME280;64967;50.234;19.224;2023-08-21T07:55:03;74146.91;;;-143.90;72.14
76050;BME280;64967;50.234;19.224;2023-08-21T07:57:30;74171.72;;;-143.90;72.06
76050;BME280;64967;50.234;19.224;2023-08-21T07:59:57;74163.47;;;-143.90;72.10
76050;BME280;64967;50.234;19.224;2023-08-21T08:02:24;74165.53;;;-143.90;72.19
76050;BME280;64967;50.234;19.224;2023-08-21T08:04:51;74161.38;;;-143.90;72.41
76050;BME280;64967;50.234;19.224;2023-08-21T08:07:18;74157.25;;;-143.90;72.57
76050;BME280;64967;50.234;19.224;2023-08-21T08:09:44;74153.13;;;-143.90;73.17
76050;BME280;64967;50.234;19.224;2023-08-21T08:12:11;74151.06;;;-143.90;72.93
76050;BME280;64967;50.234;19.224;2023-08-21T08:14:38;74153.13;;;-143.90;73.83
76050;BME280;64967;50.234;19.224;2023-08-21T08:17:04;74151.06;;;-143.90;73.48
76050;BME280;64967;50.234;19.224;2023-08-21T08:19:31;74151.06;;;-143.90;73.03
76050;BME280;64967;50.234;19.224;2023-08-21T08:21:58;74146.91;;;-143.90;73.25
76050;BME280;64967;50.234;19.224;2023-08-21T08:24:25;74142.78;;;-143.90;73.82
76050;BME280;64967;50.234;19.224;2023-08-21T08:26:52;74142.78;;;-143.90;73.39
76050;BME280;64967;50.234;19.224;2023-08-21T08:29:19;74132.44;;;-143.90;74.15
76050;BME280;64967;50.234;19.224;2023-08-21T08:31:46;74136.59;;;-143.90;74.25
76050;BME280;64967;50.234;19.224;2023-08-21T08:34:13;74132.44;;;-143.90;73.82
76050;BME280;64967;50.234;19.224;2023-08-21T08:36:39;74107.66;;;-143.90;72.66
76050;BME280;64967;50.234;19.224;2023-08-21T08:39:08;74097.31;;;-143.90;72.97
76050;BME280;64967;50.234;19.224;2023-08-21T08:41:52;74072.50;;;-143.90;72.31
76050;BME280;64967;50.234;19.224;2023-08-21T08:44:23;74068.38;;;-143.90;72.09
76050;BME280;64967;50.234;19.224;2023-08-21T08:46:51;74049.78;;;-143.90;71.06
76050;BME280;64967;50.234;19.224;2023-08-21T08:49:18;74043.59;;;-143.90;71.45
76050;BME280;64967;50.234;19.224;2023-08-21T08:51:46;74035.31;;;-143.90;71.26
76050;BME280;64967;50.234;19.224;2023-08-21T08:54:13;73989.84;;;-143.90;70.43
76050;BME280;64967;50.234;19.224;2023-08-21T08:56:39;73987.78;;;-143.90;68.81
76050;BME280;64967;50.234;19.224;2023-08-21T08:59:07;73981.56;;;-143.90;68.60
76050;BME280;64967;50.234;19.224;2023-08-21T09:01:34;73971.25;;;-143.90;69.10
76050;BME280;64967;50.234;19.224;2023-08-21T09:04:02;73934.03;;;-143.90;68.91
76050;BME280;64967;50.234;19.224;2023-08-21T09:06:30;73921.63;;;-143.90;67.73
76050;BME280;64967;50.234;19.224;2023-08-21T09:08:58;73923.72;;;-143.90;67.86
76050;BME280;64967;50.234;19.224;2023-08-21T09:11:26;73919.56;;;-143.90;67.63
76050;BME280;64967;50.234;19.224;2023-08-21T09:13:54;73919.56;;;-143.90;65.75
76050;BME280;64967;50.234;19.224;2023-08-21T09:16:23;73888.56;;;-143.90;66.09
76050;BME280;64967;50.234;19.224;2023-08-21T09:18:57;73869.97;;;-143.90;64.47
76050;BME280;64967;50.234;19.224;2023-08-21T09:21:25;73911.31;;;-143.90;66.06
76050;BME280;64967;50.234;19.224;2023-08-21T09:23:59;73886.50;;;-143.90;67.01
76050;BME280;64967;50.234;19.224;2023-08-21T09:26:27;73849.31;;;-143.90;66.76
76050;BME280;64967;50.234;19.224;2023-08-21T09:28:58;73826.56;;;-143.90;66.91
76050;BME280;64967;50.234;19.224;2023-08-21T09:31:32;73797.63;;;-143.90;64.88
76050;BME280;64967;50.234;19.224;2023-08-21T09:34:01;73783.16;;;-143.90;63.14
76050;BME280;64967;50.234;19.224;2023-08-21T09:36:32;73762.50;;;-143.90;61.79
76050;BME280;64967;50.234;19.224;2023-08-21T09:38:58;73733.56;;;-143.90;61.77
76050;BME280;64967;50.234;19.224;2023-08-21T09:41:26;73714.97;;;-143.90;62.22
76050;BME280;64967;50.234;19.224;2023-08-21T09:43:58;73683.97;;;-143.90;62.04
76050;BME280;64967;50.234;19.224;2023-08-21T09:46:27;73650.91;;;-143.90;60.29
76050;BME280;64967;50.234;19.224;2023-08-21T09:48:55;73634.38;;;-143.90;61.46
76050;BME280;64967;50.234;19.224;2023-08-21T09:51:22;73619.91;;;-143.90;58.35
76050;BME280;64967;50.234;19.224;2023-08-21T09:53:49;73621.97;;;-143.90;58.41
76050;BME280;64967;50.234;19.224;2023-08-21T09:56:19;73648.84;;;-143.90;59.03
76050;BME280;64967;50.234;19.224;2023-08-21T09:58:50;73630.25;;;-143.90;58.91
76050;BME280;64967;50.234;19.224;2023-08-21T10:01:20;73634.38;;;-143.90;59.47
76050;BME280;64967;50.234;19.224;2023-08-21T10:03:48;73655.03;;;-143.90;59.45
76050;BME280;64967;50.234;19.224;2023-08-21T10:06:17;73638.50;;;-143.90;58.94
76050;BME280;64967;50.234;19.224;2023-08-21T10:08:53;73613.72;;;-143.90;58.93
76050;BME280;64967;50.234;19.224;2023-08-21T10:11:21;73630.25;;;-143.90;57.52
76050;BME280;64967;50.234;19.224;2023-08-21T10:13:48;73617.84;;;-143.90;58.95
76050;BME280;64967;50.234;19.224;2023-08-21T10:16:18;73588.91;;;-143.90;59.44
76050;BME280;64967;50.234;19.224;2023-08-21T10:18:46;73578.56;;;-143.90;56.48
76050;BME280;64967;50.234;19.224;2023-08-21T10:21:15;73593.03;;;-143.90;56.79
76050;BME280;64967;50.234;19.224;2023-08-21T10:23:42;73574.44;;;-143.90;58.22
76050;BME280;64967;50.234;19.224;2023-08-21T10:26:12;73549.63;;;-143.90;57.32
76050;BME280;64967;50.234;19.224;2023-08-21T10:28:53;73537.25;;;-143.90;55.12
76050;BME280;64967;50.234;19.224;2023-08-21T10:31:27;73533.09;;;-143.90;54.77
76050;BME280;64967;50.234;19.224;2023-08-21T10:33:58;73514.50;;;-143.90;55.62
76050;BME280;64967;50.234;19.224;2023-08-21T10:36:39;73510.38;;;-143.90;56.65
76050;BME280;64967;50.234;19.224;2023-08-21T10:47:19;73462.84;;;-143.90;56.24
76050;BME280;64967;50.234;19.224;2023-08-21T10:49:49;73458.72;;;-143.90;55.17
76050;BME280;64967;50.234;19.224;2023-08-21T10:52:26;73460.78;;;-143.90;52.53
76050;BME280;64967;50.234;19.224;2023-08-21T10:54:57;73456.66;;;-143.90;53.32
76050;BME280;64967;50.234;19.224;2023-08-21T10:57:25;73460.78;;;-143.90;53.80
76050;BME280;64967;50.234;19.224;2023-08-21T10:59:53;73458.72;;;-143.90;54.85
76050;BME280;64967;50.234;19.224;2023-08-21T11:02:21;73456.66;;;-143.90;56.12
76050;BME280;64967;50.234;19.224;2023-08-21T11:04:49;73456.66;;;-143.90;57.06
76050;BME280;64967;50.234;19.224;2023-08-21T11:07:16;73477.31;;;-143.90;55.73
76050;BME280;64967;50.234;19.224;2023-08-21T11:09:43;73493.84;;;-143.90;55.31
76050;BME280;64967;50.234;19.224;2023-08-21T11:12:11;73510.38;;;-143.90;55.07
76050;BME280;64967;50.234;19.224;2023-08-21T11:14:40;73518.66;;;-143.90;55.54
76050;BME280;64967;50.234;19.224;2023-08-21T11:17:08;73522.78;;;-143.90;56.36
76050;BME280;64967;50.234;19.224;2023-08-21T11:19:36;73526.91;;;-143.90;56.70
76050;BME280;64967;50.234;19.224;2023-08-21T11:22:03;73541.38;;;-143.90;56.29
76050;BME280;64967;50.234;19.224;2023-08-21T11:24:40;73541.38;;;-143.90;55.53
76050;BME280;64967;50.234;19.224;2023-08-21T11:27:08;73545.50;;;-143.90;56.46
76050;BME280;64967;50.234;19.224;2023-08-21T11:29:41;73557.91;;;-143.90;58.20
76050;BME280;64967;50.234;19.224;2023-08-21T11:32:15;73549.63;;;-143.90;58.89
76050;BME280;64967;50.234;19.224;2023-08-21T11:34:47;73559.97;;;-143.90;58.59
76050;BME280;64967;50.234;19.224;2023-08-21T11:37:14;73576.50;;;-143.90;61.32
76050;BME280;64967;50.234;19.224;2023-08-21T11:39:50;73572.38;;;-143.90;59.52
76050;BME280;64967;50.234;19.224;2023-08-21T11:42:20;73576.50;;;-143.90;62.07
76050;BME280;64967;50.234;19.224;2023-08-21T11:44:50;73582.72;;;-143.90;60.25
76050;BME280;64967;50.234;19.224;2023-08-21T11:47:19;73572.38;;;-143.90;57.27
76050;BME280;64967;50.234;19.224;2023-08-21T11:49:47;73559.97;;;-143.90;57.35
76050;BME280;64967;50.234;19.224;2023-08-21T11:52:23;73547.56;;;-143.90;58.37
76050;BME280;64967;50.234;19.224;2023-08-21T11:54:54;73539.31;;;-143.90;58.60
76050;BME280;64967;50.234;19.224;2023-08-21T11:57:21;73526.91;;;-143.90;56.48
76050;BME280;64967;50.234;19.224;2023-08-21T11:59:52;73502.09;;;-143.90;55.78
76050;BME280;64967;50.234;19.224;2023-08-21T12:02:26;73491.78;;;-143.90;55.95
76050;BME280;64967;50.234;19.224;2023-08-21T12:05:05;73471.13;;;-143.90;55.48
76050;BME280;64967;50.234;19.224;2023-08-21T12:07:33;73460.78;;;-143.90;55.32
76050;BME280;64967;50.234;19.224;2023-08-21T12:10:00;73444.25;;;-143.90;57.11
76050;BME280;64967;50.234;19.224;2023-08-21T12:12:27;73431.84;;;-143.90;55.02
76050;BME280;64967;50.234;19.224;2023-08-21T12:14:54;73415.31;;;-143.90;54.97
76050;BME280;64967;50.234;19.224;2023-08-21T12:17:21;73402.91;;;-143.90;54.19
76050;BME280;64967;50.234;19.224;2023-08-21T12:19:47;73407.06;;;-143.90;55.03
76050;BME280;64967;50.234;19.224;2023-08-21T12:22:14;73413.25;;;-143.90;52.97
76050;BME280;64967;50.234;19.224;2023-08-21T12:24:41;73398.78;;;-143.90;54.06
76050;BME280;64967;50.234;19.224;2023-08-21T12:27:07;73386.38;;;-143.90;51.60
76050;BME280;64967;50.234;19.224;2023-08-21T12:29:34;73369.84;;;-143.90;51.07
76050;BME280;64967;50.234;19.224;2023-08-21T12:32:02;73371.91;;;-143.90;48.30
76050;BME280;64967;50.234;19.224;2023-08-21T12:34:29;73361.59;;;-143.90;49.92
76050;BME280;64967;50.234;19.224;2023-08-21T12:36:56;73365.72;;;-143.90;50.57
76050;BME280;64967;50.234;19.224;2023-08-21T12:39:23;73353.31;;;-143.90;50.24
76050;BME280;64967;50.234;19.224;2023-08-21T12:41:49;73349.19;;;-143.90;47.94
76050;BME280;64967;50.234;19.224;2023-08-21T12:44:17;73369.84;;;-143.90;49.58
76050;BME280;64967;50.234;19.224;2023-08-21T12:46:43;73355.38;;;-143.90;50.92